This is the latest recevied weather packets stored in our database for station/object N6XE. If no packets are shown the sender has not sent any weather packets the latest 10 day(s).
| Time | Temp. | Humidity | Pressure | Rain* | Wind** | Luminosity | Snow |
|---|---|---|---|---|---|---|---|
| 1777551327 | 11.67° C | 88% | 1016.5 hPa | 0 mm | - | - | - |
| 1777548349 | 12.22° C | 84% | 1016.7 hPa | 0 mm | - | - | - |
| 1777547715 | 12.22° C | 84% | 1016.7 hPa | 0 mm | - | - | - |
| 1777545968 | 12.78° C | 84% | 1016.7 hPa | 0 mm | - | - | - |
| 1777540531 | 13.89° C | 78% | 1017.3 hPa | 0 mm | - | - | - |
| 1777532735 | 16.67° C | 64% | 1017.6 hPa | 0 mm | - | - | - |
| 1777532119 | 17.22° C | 63% | 1017.6 hPa | 0 mm | - | - | - |
| 1777527931 | 17.78° C | 63% | 1017.8 hPa | 0 mm | - | - | - |
| 1777521324 | 20° C | 60% | 1017.2 hPa | 0 mm | - | - | - |
| 1777515928 | 25° C | 54% | 1016.5 hPa | 0 mm | - | - | - |
| 1777514718 | 26.11° C | 42% | 1016.5 hPa | 0 mm | - | - | - |
| 1777514122 | 26.67° C | 37% | 1016.5 hPa | 0 mm | - | - | - |
| 1777510530 | 28.33° C | 36% | 1016.7 hPa | 0 mm | - | - | - |
| 1777509917 | 28.33° C | 36% | 1016.8 hPa | 0 mm | - | - | - |
| 1777506920 | 28.33° C | 36% | 1017 hPa | 0 mm | - | - | - |
| 1777506324 | 28.89° C | 34% | 1017.1 hPa | 0 mm | - | - | - |
| 1777505736 | 28.89° C | 36% | 1017.2 hPa | 0 mm | - | - | - |
| 1777503328 | 28.89° C | 34% | 1017.7 hPa | 0 mm | - | - | - |
| 1777502732 | 28.89° C | 35% | 1017.8 hPa | 0 mm | - | - | - |
| 1777496125 | 27.22° C | 43% | 1019 hPa | 0 mm | - | - | - |
| 1777489518 | 25° C | 51% | 1020.4 hPa | 0 mm | - | - | - |
| 1777488317 | 24.44° C | 54% | 1020.6 hPa | 0 mm | - | - | - |
| 1777480520 | 19.44° C | 65% | 1021.2 hPa | 0 mm | - | - | - |
| 1777478119 | 17.22° C | 74% | 1021.3 hPa | 0 mm | - | - | - |
| 1777476927 | 16.67° C | 76% | 1021.3 hPa | 0 mm | - | - | - |
* Rain latest hour (hover to see other rain measurements)
** Current wind speed in m/s (hover to see current wind gust speed)